createdAt,value
2022-08-03T00:00:37.254Z,99592.81
2022-08-03T00:03:05.973Z,99592.81
2022-08-03T00:05:35.667Z,99587.25
2022-08-03T00:08:04.080Z,99592.69
2022-08-03T00:10:36.590Z,99592.31
2022-08-03T00:13:05.262Z,99594.81
2022-08-03T00:15:33.859Z,99594.69
2022-08-03T00:18:02.092Z,99586.25
2022-08-03T00:20:30.177Z,99584.94
2022-08-03T00:22:58.297Z,99589.97
2022-08-03T00:25:26.619Z,99594.22
2022-08-03T00:27:56.290Z,99585.41
2022-08-03T00:30:29.384Z,99588.59
2022-08-03T00:32:59.703Z,99586.47
2022-08-03T00:35:36.719Z,99587.88
2022-08-03T00:38:16.532Z,99589.81
2022-08-03T00:40:44.712Z,99591.09
2022-08-03T00:43:14.885Z,99592.38
2022-08-03T00:45:43.735Z,99591.31
2022-08-03T00:48:32.234Z,99587.63
2022-08-03T00:51:00.841Z,99593.72
2022-08-03T00:53:29.113Z,99586.94
2022-08-03T00:55:57.423Z,99593.00
2022-08-03T00:58:26.885Z,99592.38
2022-08-03T01:00:55.231Z,99590.75
2022-08-03T01:03:23.768Z,99582.66
2022-08-03T01:05:54.618Z,99578.47
2022-08-03T01:08:25.505Z,99577.19
2022-08-03T01:10:55.862Z,99576.47
2022-08-03T01:14:01.080Z,99571.34
2022-08-03T01:16:19.472Z,99579.34
2022-08-03T01:18:49.082Z,99575.63
2022-08-03T01:21:21.325Z,99571.22
2022-08-03T01:24:00.525Z,99585.81
2022-08-03T01:26:44.089Z,99571.94
2022-08-03T01:29:21.962Z,99574.28
2022-08-03T01:32:58.668Z,99568.25
2022-08-03T01:34:45.306Z,99573.81
2022-08-03T01:37:15.135Z,99576.53
2022-08-03T01:39:44.289Z,99581.41
2022-08-03T01:42:13.029Z,99587.47
2022-08-03T01:44:42.515Z,99584.97
2022-08-03T01:47:13.107Z,99598.16
2022-08-03T01:49:44.669Z,99600.28
2022-08-03T01:52:14.042Z,99611.91
2022-08-03T01:54:44.593Z,99603.97
2022-08-03T01:57:12.912Z,99610.72
2022-08-03T01:59:41.736Z,99609.97
2022-08-03T02:02:32.679Z,99610.53
2022-08-03T02:05:02.966Z,99606.81
2022-08-03T02:07:31.534Z,99605.63
2022-08-03T02:10:00.862Z,99608.94
2022-08-03T02:12:30.125Z,99600.63
2022-08-03T02:14:59.969Z,99606.63
2022-08-03T02:17:39.679Z,99593.22
2022-08-03T02:20:10.026Z,99597.44
2022-08-03T02:22:40.592Z,99593.50
2022-08-03T02:25:09.437Z,99595.94
2022-08-03T02:27:43.473Z,99590.34
2022-08-03T02:30:13.620Z,99591.44
2022-08-03T02:32:45.626Z,99583.34
2022-08-03T02:35:15.337Z,99575.69
2022-08-03T02:37:49.565Z,99580.00
2022-08-03T02:40:19.761Z,99581.97
2022-08-03T02:42:48.373Z,99581.19
2022-08-03T02:45:17.964Z,99581.47
2022-08-03T02:47:53.840Z,99586.16
2022-08-03T02:50:24.122Z,99596.06
2022-08-03T02:52:53.434Z,99590.84
2022-08-03T02:55:23.073Z,99600.06
2022-08-03T02:57:51.750Z,99591.66
2022-08-03T03:00:28.109Z,99596.88
2022-08-03T03:03:00.412Z,99604.41
2022-08-03T03:05:55.137Z,99598.75
2022-08-03T03:08:20.781Z,99600.38
2022-08-03T03:10:55.542Z,99599.97
2022-08-03T03:13:24.335Z,99600.78
2022-08-03T03:15:53.506Z,99606.91
2022-08-03T03:18:23.288Z,99598.28
2022-08-03T03:20:52.965Z,99597.47
2022-08-03T03:23:22.767Z,99600.84
2022-08-03T03:25:51.677Z,99601.00
2022-08-03T03:28:19.854Z,99596.00
2022-08-03T03:30:52.553Z,99606.91
2022-08-03T03:33:23.129Z,99604.78
2022-08-03T03:35:51.801Z,99607.91
2022-08-03T03:38:20.364Z,99618.41
2022-08-03T03:40:48.850Z,99624.03
2022-08-03T03:43:18.672Z,99619.63
2022-08-03T03:45:48.106Z,99620.41
2022-08-03T03:48:16.421Z,99625.66
2022-08-03T03:50:46.221Z,99631.53
2022-08-03T03:53:15.875Z,99626.06
2022-08-03T03:55:57.883Z,99632.97
2022-08-03T03:58:31.850Z,99626.91
2022-08-03T04:01:00.476Z,99626.75
2022-08-03T04:03:28.842Z,99635.38
2022-08-03T04:06:16.299Z,99637.31
2022-08-03T04:09:01.839Z,99634.00
2022-08-03T04:11:32.164Z,99640.59
2022-08-03T04:14:02.317Z,99632.88
2022-08-03T04:16:41.872Z,99637.06
2022-08-03T04:19:13.454Z,99624.94
2022-08-03T04:21:44.804Z,99636.28
2022-08-03T04:24:14.361Z,99633.22
2022-08-03T04:26:43.380Z,99630.94
2022-08-03T04:29:12.362Z,99628.81
2022-08-03T04:31:41.383Z,99622.13
2022-08-03T04:34:09.827Z,99623.56
2022-08-03T04:36:41.338Z,99627.72
2022-08-03T04:39:14.860Z,99631.75
2022-08-03T04:42:04.290Z,99629.16
2022-08-03T04:44:37.110Z,99635.03
2022-08-03T04:47:05.329Z,99642.53
2022-08-03T04:49:34.004Z,99638.75
2022-08-03T04:52:02.747Z,99649.66
2022-08-03T04:54:32.354Z,99654.00
2022-08-03T04:57:01.775Z,99664.50
2022-08-03T04:59:29.979Z,99655.69
2022-08-03T05:01:58.770Z,99660.75
2022-08-03T05:04:26.897Z,99662.25
2022-08-03T05:06:55.865Z,99676.47
2022-08-03T05:09:50.186Z,99676.91
2022-08-03T05:12:14.515Z,99676.72
2022-08-03T05:14:43.288Z,99678.88
2022-08-03T05:17:11.367Z,99672.81
2022-08-03T05:19:39.600Z,99681.22
2022-08-03T05:22:07.635Z,99681.59
2022-08-03T05:24:35.768Z,99686.56
2022-08-03T05:27:03.893Z,99686.06
2022-08-03T05:29:33.433Z,99686.97
2022-08-03T05:32:08.350Z,99687.03
2022-08-03T05:34:36.961Z,99684.97
2022-08-03T05:37:05.051Z,99688.25
2022-08-03T05:39:33.077Z,99669.41
2022-08-03T05:42:01.630Z,99678.84
2022-08-03T05:44:31.728Z,99678.44
2022-08-03T05:47:01.444Z,99673.91
2022-08-03T05:49:29.707Z,99675.88
2022-08-03T05:52:00.044Z,99672.09
2022-08-03T05:54:56.794Z,99678.66
2022-08-03T05:57:25.519Z,99685.44
2022-08-03T05:59:58.196Z,99687.19
2022-08-03T06:02:28.697Z,99687.97
2022-08-03T06:04:56.913Z,99690.69
2022-08-03T06:07:25.209Z,99692.06
2022-08-03T06:10:35.437Z,99688.22
2022-08-03T06:12:41.612Z,99684.63
2022-08-03T06:15:11.475Z,99691.66
2022-08-03T06:17:58.682Z,99684.81
2022-08-03T06:20:30.410Z,99682.88
2022-08-03T06:23:00.274Z,99677.19
2022-08-03T06:25:30.909Z,99669.88
2022-08-03T06:27:59.598Z,99668.09
2022-08-03T06:30:27.913Z,99670.16
2022-08-03T06:32:56.043Z,99664.19
2022-08-03T06:35:24.646Z,99677.75
2022-08-03T06:37:54.359Z,99675.59
2022-08-03T06:40:29.924Z,99680.34
2022-08-03T06:42:58.582Z,99684.19
2022-08-03T06:45:26.669Z,99677.44
2022-08-03T06:48:01.825Z,99681.19
2022-08-03T06:50:30.113Z,99695.97
2022-08-03T06:53:00.009Z,99691.16
2022-08-03T06:55:28.676Z,99678.34
2022-08-03T06:58:00.163Z,99690.16
2022-08-03T07:00:31.975Z,99678.06
2022-08-03T07:03:00.175Z,99675.78
2022-08-03T07:05:30.674Z,99678.28
2022-08-03T07:08:02.026Z,99674.59
2022-08-03T07:10:30.242Z,99669.84
2022-08-03T07:12:58.361Z,99668.13
2022-08-03T07:15:54.076Z,99666.13
2022-08-03T07:18:15.066Z,99674.94
2022-08-03T07:20:43.534Z,99679.31
2022-08-03T07:23:19.093Z,99681.06
2022-08-03T07:25:47.736Z,99683.38
2022-08-03T07:28:16.259Z,99681.69
2022-08-03T07:30:44.368Z,99671.34
2022-08-03T07:33:12.708Z,99680.31
2022-08-03T07:35:40.921Z,99678.44
2022-08-03T07:38:09.010Z,99671.59
2022-08-03T07:40:44.432Z,99677.66
2022-08-03T07:43:14.429Z,99679.91
2022-08-03T07:45:43.036Z,99679.47
2022-08-03T07:48:12.524Z,99681.16
2022-08-03T07:50:41.026Z,99677.50
2022-08-03T07:53:09.135Z,99682.97
2022-08-03T07:55:38.853Z,99685.19
2022-08-03T07:58:09.461Z,99687.16
2022-08-03T08:00:37.875Z,99677.53
2022-08-03T08:03:06.401Z,99678.41
2022-08-03T08:05:35.434Z,99680.72
2022-08-03T08:08:04.204Z,99690.44
2022-08-03T08:10:32.840Z,99705.16
2022-08-03T08:13:02.548Z,99714.69
2022-08-03T08:15:31.735Z,99712.59
2022-08-03T08:18:01.123Z,99712.63
2022-08-03T08:20:31.470Z,99717.59
2022-08-03T08:23:01.292Z,99715.78
2022-08-03T08:25:30.624Z,99714.38
2022-08-03T08:28:30.841Z,99710.50
2022-08-03T08:30:48.814Z,99707.44
2022-08-03T08:33:23.307Z,99710.72
2022-08-03T08:35:53.210Z,99723.06
2022-08-03T08:38:21.472Z,99722.66
2022-08-03T08:40:50.300Z,99720.94
2022-08-03T08:43:19.528Z,99728.56
2022-08-03T08:45:50.553Z,99726.41
2022-08-03T08:48:23.730Z,99731.47
2022-08-03T08:50:54.407Z,99735.44
2022-08-03T08:53:27.362Z,99736.56
2022-08-03T08:56:00.841Z,99738.34
2022-08-03T08:58:30.951Z,99741.38
2022-08-03T09:01:00.882Z,99732.09
2022-08-03T09:03:29.631Z,99733.19
2022-08-03T09:05:59.747Z,99737.28
2022-08-03T09:08:27.922Z,99736.25
2022-08-03T09:10:56.130Z,99727.44
2022-08-03T09:13:24.430Z,99732.59
2022-08-03T09:16:10.285Z,99730.28
2022-08-03T09:18:38.460Z,99727.69
2022-08-03T09:21:36.512Z,99723.91
2022-08-03T09:24:10.234Z,99719.47
2022-08-03T09:26:52.160Z,99729.03
2022-08-03T09:29:22.853Z,99726.47
2022-08-03T09:32:01.629Z,99722.75
2022-08-03T09:34:29.933Z,99732.94
2022-08-03T09:36:58.935Z,99727.69
2022-08-03T09:39:41.900Z,99738.22
2022-08-03T09:42:11.625Z,99738.81
2022-08-03T09:44:44.421Z,99740.47
2022-08-03T09:47:14.921Z,99736.00
2022-08-03T09:49:43.712Z,99745.22
2022-08-03T09:52:32.485Z,99738.44
2022-08-03T09:56:01.766Z,99745.94
2022-08-03T09:58:05.780Z,99738.56
2022-08-03T10:00:34.059Z,99744.31
2022-08-03T10:03:06.341Z,99744.97
2022-08-03T10:05:34.804Z,99747.50
2022-08-03T10:08:15.802Z,99755.66
2022-08-03T10:10:45.260Z,99759.47
2022-08-03T10:13:14.514Z,99761.63
2022-08-03T10:16:21.712Z,99763.47
2022-08-03T10:18:32.971Z,99765.88
2022-08-03T10:21:04.455Z,99766.69
2022-08-03T10:23:35.522Z,99763.31
2022-08-03T10:26:05.714Z,99762.88
2022-08-03T10:28:39.184Z,99756.56
2022-08-03T10:31:11.557Z,99746.25
2022-08-03T10:33:51.532Z,99754.00
2022-08-03T10:36:24.327Z,99747.94
2022-08-03T10:38:53.847Z,99750.16
2022-08-03T10:41:22.632Z,99748.22
2022-08-03T10:43:52.489Z,99746.03
2022-08-03T10:46:22.669Z,99743.53
2022-08-03T10:48:53.974Z,99746.84
2022-08-03T10:51:22.945Z,99747.66
2022-08-03T10:53:54.931Z,99749.22
2022-08-03T10:56:57.689Z,99761.03
2022-08-03T10:59:45.381Z,99756.84
2022-08-03T11:02:14.448Z,99769.44
2022-08-03T11:04:44.891Z,99778.50
2022-08-03T11:07:20.675Z,99782.28
2022-08-03T11:09:49.770Z,99783.28
2022-08-03T11:12:28.336Z,99777.81
2022-08-03T11:15:00.560Z,99779.59
2022-08-03T11:17:29.118Z,99786.84
2022-08-03T11:19:58.952Z,99786.31
2022-08-03T11:22:29.165Z,99781.63
2022-08-03T11:25:01.055Z,99782.97
2022-08-03T11:27:30.444Z,99784.66
2022-08-03T11:30:00.879Z,99782.69
2022-08-03T11:32:48.425Z,99788.44
2022-08-03T11:35:19.848Z,99784.69
2022-08-03T11:38:08.432Z,99790.91
2022-08-03T11:40:38.012Z,99792.84
2022-08-03T11:43:07.275Z,99795.72
2022-08-03T11:45:35.932Z,99795.63
2022-08-03T11:48:14.276Z,99798.81
2022-08-03T11:50:45.696Z,99800.22
2022-08-03T11:53:18.388Z,99811.59
2022-08-03T11:55:49.103Z,99820.81
2022-08-03T11:59:16.385Z,99828.59
2022-08-03T12:01:07.782Z,99831.38
2022-08-03T12:03:36.390Z,99833.19
2022-08-03T12:06:10.309Z,99833.19
2022-08-03T12:08:38.560Z,99824.13
2022-08-03T12:11:07.846Z,99829.03
2022-08-03T12:14:05.735Z,99837.84
2022-08-03T12:16:29.889Z,99835.47
2022-08-03T12:18:58.890Z,99838.00
2022-08-03T12:21:28.873Z,99850.31
2022-08-03T12:24:00.899Z,99848.28
2022-08-03T12:26:30.017Z,99841.81
2022-08-03T12:28:59.689Z,99845.09
2022-08-03T12:31:27.799Z,99837.47
2022-08-03T12:33:56.930Z,99834.22
2022-08-03T12:36:25.342Z,99834.22
2022-08-03T12:38:57.945Z,99844.56
2022-08-03T12:41:29.905Z,99838.66
2022-08-03T12:43:58.229Z,99834.84
2022-08-03T12:46:30.929Z,99832.88
2022-08-03T12:48:59.945Z,99835.13
2022-08-03T12:51:28.581Z,99837.88
2022-08-03T12:53:58.813Z,99837.38
2022-08-03T12:56:27.447Z,99833.50
2022-08-03T12:58:55.954Z,99832.94
2022-08-03T13:01:27.891Z,99846.44
2022-08-03T13:03:56.244Z,99839.50
2022-08-03T13:06:25.813Z,99840.06
2022-08-03T13:09:05.571Z,99844.56
2022-08-03T13:11:58.041Z,99835.78
2022-08-03T13:14:23.619Z,99844.66
2022-08-03T13:16:52.140Z,99839.38
2022-08-03T13:19:20.687Z,99847.94
2022-08-03T13:22:03.486Z,99843.81
2022-08-03T13:24:35.042Z,99842.69
2022-08-03T13:27:23.315Z,99846.31
2022-08-03T13:29:54.201Z,99852.94
2022-08-03T13:32:22.954Z,99850.19
2022-08-03T13:34:51.393Z,99843.81
2022-08-03T13:37:19.599Z,99846.56
2022-08-03T13:39:58.807Z,99842.72
2022-08-03T13:42:28.675Z,99852.34
2022-08-03T13:44:56.891Z,99844.56
2022-08-03T13:47:25.083Z,99856.19
2022-08-03T13:49:59.526Z,99850.09
2022-08-03T13:52:29.444Z,99848.94
2022-08-03T13:54:59.070Z,99850.44
2022-08-03T13:58:04.188Z,99855.94
2022-08-03T14:00:16.675Z,99844.03
2022-08-03T14:03:02.899Z,99852.53
2022-08-03T14:05:32.822Z,99850.97
2022-08-03T14:08:04.792Z,99859.63
2022-08-03T14:10:34.999Z,99848.09
2022-08-03T14:13:03.701Z,99857.47
2022-08-03T14:15:37.436Z,99857.78
2022-08-03T14:18:06.255Z,99863.84
2022-08-03T14:20:37.177Z,99854.41
2022-08-03T14:23:07.794Z,99852.75
2022-08-03T14:25:50.479Z,99851.66
2022-08-03T14:28:22.755Z,99851.69
2022-08-03T14:30:51.638Z,99850.06
2022-08-03T14:33:19.958Z,99846.50
2022-08-03T14:35:48.462Z,99847.84
2022-08-03T14:38:16.630Z,99845.09
2022-08-03T14:40:46.457Z,99843.94
2022-08-03T14:43:15.099Z,99855.84
2022-08-03T14:45:43.218Z,99852.81
2022-08-03T14:50:28.955Z,99851.16
2022-08-03T14:51:01.356Z,99851.75
2022-08-03T14:53:30.234Z,99853.38
2022-08-03T14:55:59.778Z,99845.13
2022-08-03T14:58:27.941Z,99849.56
2022-08-03T15:00:57.049Z,99844.13
2022-08-03T15:03:25.776Z,99841.03
2022-08-03T15:05:54.489Z,99836.66
2022-08-03T15:08:23.286Z,99847.63
2022-08-03T15:10:51.455Z,99846.81
2022-08-03T15:13:21.420Z,99841.56
2022-08-03T15:15:50.078Z,99840.47
2022-08-03T15:18:18.510Z,99844.81
2022-08-03T15:20:47.374Z,99837.94
2022-08-03T15:23:16.433Z,99839.56
2022-08-03T15:26:28.330Z,99850.06
2022-08-03T15:28:37.418Z,99841.81
2022-08-03T15:31:06.333Z,99843.44
2022-08-03T15:33:35.285Z,99842.91
2022-08-03T15:36:03.891Z,99842.94
2022-08-03T15:38:32.299Z,99839.09
2022-08-03T15:41:00.850Z,99839.38
2022-08-03T15:43:29.042Z,99846.88
2022-08-03T15:46:27.761Z,99850.19
2022-08-03T15:48:47.539Z,99845.75
2022-08-03T15:51:15.792Z,99845.75
2022-08-03T15:53:43.967Z,99846.31
2022-08-03T15:56:16.804Z,99849.63
2022-08-03T15:59:09.156Z,99857.06
2022-08-03T16:01:36.772Z,99857.31
2022-08-03T16:04:05.284Z,99854.25
2022-08-03T16:06:35.493Z,99859.50
2022-08-03T16:09:05.593Z,99851.72
2022-08-03T16:11:52.886Z,99846.44
2022-08-03T16:14:32.350Z,99846.44
2022-08-03T16:17:05.846Z,99851.09
2022-08-03T16:19:34.181Z,99845.06
2022-08-03T16:22:03.754Z,99843.44
2022-08-03T16:24:32.141Z,99849.41
2022-08-03T16:27:00.835Z,99848.59
2022-08-03T16:29:29.713Z,99843.38
2022-08-03T16:31:58.022Z,99849.91
2022-08-03T16:34:27.976Z,99853.47
2022-08-03T16:36:56.151Z,99854.28
2022-08-03T16:39:24.290Z,99857.53
2022-08-03T16:41:54.328Z,99858.94
2022-08-03T16:44:29.677Z,99864.69
2022-08-03T16:46:57.998Z,99865.16
2022-08-03T16:49:56.102Z,99872.31
2022-08-03T16:52:16.866Z,99876.78
2022-08-03T16:54:52.543Z,99876.09
2022-08-03T16:57:58.213Z,99875.47
2022-08-03T17:00:11.847Z,99875.59
2022-08-03T17:02:48.101Z,99872.66
2022-08-03T17:05:18.063Z,99884.13
2022-08-03T17:07:50.774Z,99888.34
2022-08-03T17:10:27.250Z,99906.41
2022-08-03T17:12:56.104Z,99901.00
2022-08-03T17:15:38.322Z,99896.81
2022-08-03T17:18:18.185Z,99894.13
2022-08-03T17:20:52.602Z,99903.41
2022-08-03T17:23:34.800Z,99902.97
2022-08-03T17:26:09.768Z,99897.06
2022-08-03T17:28:57.429Z,99890.69
2022-08-03T17:31:31.224Z,99898.94
2022-08-03T17:34:01.560Z,99891.56
2022-08-03T17:37:02.034Z,99902.00
2022-08-03T17:39:35.816Z,99897.78
2022-08-03T17:42:31.321Z,99905.84
2022-08-03T17:44:57.478Z,99903.03
2022-08-03T17:47:29.313Z,99916.13
2022-08-03T17:50:24.518Z,99913.84
2022-08-03T17:53:07.009Z,99920.16
2022-08-03T17:55:57.601Z,99917.72
2022-08-03T17:58:36.745Z,99930.66
2022-08-03T18:02:06.150Z,99932.38
2022-08-03T18:04:13.751Z,99942.72
2022-08-03T18:06:55.586Z,99934.81
2022-08-03T18:10:06.784Z,99942.22
2022-08-03T18:12:22.480Z,99942.34
2022-08-03T18:14:57.713Z,99943.66
2022-08-03T18:17:55.178Z,99949.13
2022-08-03T18:20:31.237Z,99947.00
2022-08-03T18:23:04.733Z,99956.53
2022-08-03T18:25:50.841Z,99956.28
2022-08-03T18:28:26.379Z,99960.09
2022-08-03T18:30:55.999Z,99959.03
2022-08-03T18:34:16.482Z,99956.06
2022-08-03T18:36:18.074Z,99965.94
2022-08-03T18:38:51.199Z,99974.38
2022-08-03T18:41:32.325Z,99981.34
2022-08-03T18:44:07.964Z,99975.22
2022-08-03T18:46:44.608Z,99982.25
2022-08-03T18:49:19.130Z,99981.03
2022-08-03T18:51:52.095Z,99990.69
2022-08-03T18:54:51.740Z,99986.03
2022-08-03T18:57:21.338Z,100000.78
2022-08-03T19:00:03.593Z,100009.03
2022-08-03T19:02:36.170Z,100003.78
2022-08-03T19:05:06.396Z,100018.34
2022-08-03T19:07:36.723Z,100009.91
2022-08-03T19:10:09.344Z,100011.00
2022-08-03T19:12:44.681Z,100012.22
2022-08-03T19:15:15.660Z,100015.94
2022-08-03T19:17:50.145Z,100012.22
2022-08-03T19:20:24.958Z,100013.56
2022-08-03T19:22:54.999Z,100013.56
2022-08-03T19:25:34.427Z,100017.84
2022-08-03T19:28:07.182Z,100024.59
2022-08-03T19:30:39.996Z,100022.63
2022-08-03T19:33:09.572Z,100021.66
2022-08-03T19:35:46.973Z,100029.53
2022-08-03T19:38:28.453Z,100034.00
2022-08-03T19:40:59.598Z,100036.63
2022-08-03T19:43:49.605Z,100046.41
2022-08-03T19:46:21.563Z,100036.16
2022-08-03T19:48:54.862Z,100048.00
2022-08-03T19:51:58.223Z,100049.56
2022-08-03T19:54:17.068Z,100055.56
2022-08-03T19:56:57.850Z,100064.91
2022-08-03T19:59:28.527Z,100065.38
2022-08-03T20:01:57.922Z,100062.91
2022-08-03T20:04:28.519Z,100061.28
2022-08-03T20:06:58.389Z,100062.41
2022-08-03T20:09:30.606Z,100067.25
2022-08-03T20:12:00.943Z,100077.78
2022-08-03T20:14:31.680Z,100077.81
2022-08-03T20:17:00.148Z,100074.47
2022-08-03T20:19:32.775Z,100076.41
2022-08-03T20:22:04.114Z,100084.84
2022-08-03T20:24:35.241Z,100088.88
2022-08-03T20:27:07.868Z,100088.50
2022-08-03T20:29:42.788Z,100100.72
2022-08-03T20:32:29.458Z,100102.22
2022-08-03T20:35:01.447Z,100108.75
2022-08-03T20:37:31.359Z,100116.28
2022-08-03T20:40:01.195Z,100118.84
2022-08-03T20:42:29.353Z,100121.56
2022-08-03T20:45:06.389Z,100121.38
2022-08-03T20:47:50.810Z,100129.34
2022-08-03T20:50:24.704Z,100134.78
2022-08-03T20:52:53.748Z,100136.91
2022-08-03T20:55:48.245Z,100135.00
2022-08-03T20:58:13.169Z,100126.84
2022-08-03T21:00:45.803Z,100138.16
2022-08-03T21:03:15.487Z,100135.88
2022-08-03T21:05:51.705Z,100141.09
2022-08-03T21:08:24.567Z,100146.97
2022-08-03T21:10:55.218Z,100144.06
2022-08-03T21:13:25.850Z,100147.78
2022-08-03T21:16:11.631Z,100147.41
2022-08-03T21:18:46.349Z,100148.44
2022-08-03T21:21:17.246Z,100156.16
2022-08-03T21:23:48.662Z,100148.81
2022-08-03T21:26:19.569Z,100154.47
2022-08-03T21:28:49.274Z,100157.19
2022-08-03T21:31:25.358Z,100154.41
2022-08-03T21:33:57.647Z,100162.53
2022-08-03T21:36:29.028Z,100169.03
2022-08-03T21:38:59.636Z,100171.91
2022-08-03T21:41:29.969Z,100168.53
2022-08-03T21:43:59.206Z,100168.69
2022-08-03T21:46:35.161Z,100170.56
2022-08-03T21:50:05.315Z,100174.28
2022-08-03T21:52:00.961Z,100167.97
2022-08-03T21:54:37.519Z,100169.81
2022-08-03T21:57:07.412Z,100168.94
2022-08-03T21:59:37.544Z,100176.84
2022-08-03T22:02:13.825Z,100178.69
2022-08-03T22:04:55.790Z,100184.94
2022-08-03T22:07:25.924Z,100192.00
2022-08-03T22:09:55.501Z,100204.50
2022-08-03T22:12:24.533Z,100205.91
2022-08-03T22:15:00.282Z,100212.78
2022-08-03T22:17:54.052Z,100215.88
2022-08-03T22:20:21.956Z,100217.69
2022-08-03T22:22:55.115Z,100218.50
2022-08-03T22:25:25.824Z,100219.72
2022-08-03T22:27:55.622Z,100217.22
2022-08-03T22:30:23.983Z,100225.16
2022-08-03T22:32:56.320Z,100223.13
2022-08-03T22:35:26.058Z,100239.00
2022-08-03T22:37:55.185Z,100237.81
2022-08-03T22:40:23.770Z,100236.56
2022-08-03T22:42:53.188Z,100237.22
2022-08-03T22:46:07.013Z,100247.06
2022-08-03T22:48:12.249Z,100243.28
2022-08-03T22:50:40.937Z,100241.63
2022-08-03T22:53:09.552Z,100247.69
2022-08-03T22:55:38.243Z,100249.59
2022-08-03T22:58:06.633Z,100241.63
2022-08-03T23:00:35.006Z,100246.00
2022-08-03T23:03:03.599Z,100250.41
2022-08-03T23:06:01.349Z,100249.78
2022-08-03T23:08:25.566Z,100244.72
2022-08-03T23:10:54.661Z,100253.25
2022-08-03T23:13:25.394Z,100249.41
2022-08-03T23:15:58.095Z,100256.47
2022-08-03T23:18:32.017Z,100257.44
2022-08-03T23:21:11.653Z,100256.94
2022-08-03T23:23:45.052Z,100257.44
2022-08-03T23:26:14.535Z,100249.41
2022-08-03T23:28:47.690Z,100257.22
2022-08-03T23:31:16.710Z,100255.81
2022-08-03T23:33:46.532Z,100261.16
2022-08-03T23:36:31.158Z,100263.13
2022-08-03T23:39:00.525Z,100270.53
2022-08-03T23:41:30.004Z,100265.41
2022-08-03T23:44:00.170Z,100270.75
2022-08-03T23:46:30.451Z,100278.97
2022-08-03T23:48:59.927Z,100271.78
2022-08-03T23:51:37.871Z,100284.22
2022-08-03T23:54:11.265Z,100285.78
2022-08-03T23:56:46.945Z,100281.91
2022-08-03T23:59:22.411Z,100288.06
